sensor_id;sensor_type;location;lat;lon;timestamp;pressure;altitude;pressure_sealevel;temperature;humidity
69766;BME280;57039;48.014;21.384;2023-12-14T00:00:00;99107.09;;;5.76;100.00
69766;BME280;57039;48.014;21.384;2023-12-14T00:01:07;99094.84;;;5.78;100.00
69766;BME280;57039;48.014;21.384;2023-12-14T00:02:13;99100.22;;;5.75;100.00
69766;BME280;57039;48.014;21.384;2023-12-14T00:03:16;99093.81;;;5.80;100.00
69766;BME280;57039;48.014;21.384;2023-12-14T00:04:19;99092.97;;;5.80;100.00
69766;BME280;57039;48.014;21.384;2023-12-14T00:05:21;99101.78;;;5.77;100.00
69766;BME280;57039;48.014;21.384;2023-12-14T00:06:24;99100.47;;;5.70;100.00
69766;BME280;57039;48.014;21.384;2023-12-14T00:07:28;99100.13;;;5.76;100.00
69766;BME280;57039;48.014;21.384;2023-12-14T00:08:31;99113.97;;;5.77;100.00
69766;BME280;57039;48.014;21.384;2023-12-14T00:09:34;99118.44;;;5.75;100.00
69766;BME280;57039;48.014;21.384;2023-12-14T00:10:36;99113.31;;;5.73;100.00
69766;BME280;57039;48.014;21.384;2023-12-14T00:11:39;99115.84;;;5.75;100.00
69766;BME280;57039;48.014;21.384;2023-12-14T00:12:42;99122.72;;;5.76;100.00
69766;BME280;57039;48.014;21.384;2023-12-14T00:13:45;99121.69;;;5.78;100.00
69766;BME280;57039;48.014;21.384;2023-12-14T00:14:48;99129.41;;;5.80;100.00
69766;BME280;57039;48.014;21.384;2023-12-14T00:15:51;99111.66;;;5.56;100.00
69766;BME280;57039;48.014;21.384;2023-12-14T00:16:54;99141.94;;;5.73;100.00
69766;BME280;57039;48.014;21.384;2023-12-14T00:17:58;99139.16;;;5.76;100.00
69766;BME280;57039;48.014;21.384;2023-12-14T00:19:01;99121.06;;;5.59;100.00
69766;BME280;57039;48.014;21.384;2023-12-14T00:20:04;99146.31;;;5.72;100.00
69766;BME280;57039;48.014;21.384;2023-12-14T00:21:08;99143.69;;;5.72;100.00
69766;BME280;57039;48.014;21.384;2023-12-14T00:22:11;99145.47;;;5.72;100.00
69766;BME280;57039;48.014;21.384;2023-12-14T00:23:14;99146.38;;;5.71;100.00
69766;BME280;57039;48.014;21.384;2023-12-14T00:24:17;99155.59;;;5.77;100.00
69766;BME280;57039;48.014;21.384;2023-12-14T00:25:20;99159.78;;;5.79;100.00
69766;BME280;57039;48.014;21.384;2023-12-14T00:26:22;99163.41;;;5.77;100.00
69766;BME280;57039;48.014;21.384;2023-12-14T00:27:25;99168.59;;;5.77;100.00
69766;BME280;57039;48.014;21.384;2023-12-14T00:28:29;99185.84;;;5.63;100.00
69766;BME280;57039;48.014;21.384;2023-12-14T00:29:35;99187.44;;;5.66;100.00
69766;BME280;57039;48.014;21.384;2023-12-14T00:30:38;99180.53;;;5.65;100.00
69766;BME280;57039;48.014;21.384;2023-12-14T00:31:41;99170.72;;;5.70;100.00
69766;BME280;57039;48.014;21.384;2023-12-14T00:32:43;99173.25;;;5.71;100.00
69766;BME280;57039;48.014;21.384;2023-12-14T00:33:47;99165.34;;;5.73;100.00
69766;BME280;57039;48.014;21.384;2023-12-14T00:34:49;99161.75;;;5.76;100.00
69766;BME280;57039;48.014;21.384;2023-12-14T00:35:52;99158.12;;;5.78;100.00
69766;BME280;57039;48.014;21.384;2023-12-14T00:36:55;99153.75;;;5.79;100.00
69766;BME280;57039;48.014;21.384;2023-12-14T00:37:58;99125.59;;;5.55;100.00
69766;BME280;57039;48.014;21.384;2023-12-14T00:39:01;99158.19;;;5.77;100.00
69766;BME280;57039;48.014;21.384;2023-12-14T00:40:05;99160.97;;;5.73;100.00
69766;BME280;57039;48.014;21.384;2023-12-14T00:41:08;99164.41;;;5.74;100.00
69766;BME280;57039;48.014;21.384;2023-12-14T00:42:11;99164.16;;;5.79;100.00
69766;BME280;57039;48.014;21.384;2023-12-14T00:43:14;99166.00;;;5.77;100.00
69766;BME280;57039;48.014;21.384;2023-12-14T00:44:17;99168.53;;;5.78;100.00
69766;BME280;57039;48.014;21.384;2023-12-14T00:45:20;99173.75;;;5.78;100.00
69766;BME280;57039;48.014;21.384;2023-12-14T00:46:23;99173.75;;;5.78;100.00
69766;BME280;57039;48.014;21.384;2023-12-14T00:47:25;99178.13;;;5.78;100.00
69766;BME280;57039;48.014;21.384;2023-12-14T00:48:28;99185.06;;;5.77;100.00
69766;BME280;57039;48.014;21.384;2023-12-14T00:49:31;99194.91;;;5.72;100.00
69766;BME280;57039;48.014;21.384;2023-12-14T00:50:34;99198.34;;;5.72;100.00
69766;BME280;57039;48.014;21.384;2023-12-14T00:51:37;99201.28;;;5.66;100.00
69766;BME280;57039;48.014;21.384;2023-12-14T00:52:40;99200.63;;;5.63;100.00
69766;BME280;57039;48.014;21.384;2023-12-14T00:53:43;99195.16;;;5.67;100.00
69766;BME280;57039;48.014;21.384;2023-12-14T00:54:47;99197.50;;;5.72;100.00
69766;BME280;57039;48.014;21.384;2023-12-14T00:55:50;99192.03;;;5.77;100.00
69766;BME280;57039;48.014;21.384;2023-12-14T00:56:52;99180.13;;;5.72;100.00
69766;BME280;57039;48.014;21.384;2023-12-14T00:57:55;99175.75;;;5.73;100.00
69766;BME280;57039;48.014;21.384;2023-12-14T00:58:58;99172.56;;;5.68;100.00
69766;BME280;57039;48.014;21.384;2023-12-14T01:00:01;99177.87;;;5.66;100.00
69766;BME280;57039;48.014;21.384;2023-12-14T01:01:04;99190.06;;;5.66;100.00
69766;BME280;57039;48.014;21.384;2023-12-14T01:02:07;99198.75;;;5.65;100.00
69766;BME280;57039;48.014;21.384;2023-12-14T01:03:10;99198.94;;;5.62;100.00
69766;BME280;57039;48.014;21.384;2023-12-14T01:04:13;99202.28;;;5.64;100.00
69766;BME280;57039;48.014;21.384;2023-12-14T01:05:16;99209.09;;;5.66;100.00
69766;BME280;57039;48.014;21.384;2023-12-14T01:06:19;99204.66;;;5.68;100.00
69766;BME280;57039;48.014;21.384;2023-12-14T01:07:23;99200.19;;;5.70;100.00
69766;BME280;57039;48.014;21.384;2023-12-14T01:08:25;99189.12;;;5.67;100.00
69766;BME280;57039;48.014;21.384;2023-12-14T01:09:28;99162.28;;;5.35;100.00
69766;BME280;57039;48.014;21.384;2023-12-14T01:10:31;99186.03;;;5.60;100.00
69766;BME280;57039;48.014;21.384;2023-12-14T01:11:35;99180.66;;;5.63;100.00
69766;BME280;57039;48.014;21.384;2023-12-14T01:12:38;99190.12;;;5.64;100.00
69766;BME280;57039;48.014;21.384;2023-12-14T01:13:41;99154.31;;;5.38;100.00
69766;BME280;57039;48.014;21.384;2023-12-14T01:14:44;99179.47;;;5.53;100.00
69766;BME280;57039;48.014;21.384;2023-12-14T01:15:47;99178.75;;;5.51;100.00
69766;BME280;57039;48.014;21.384;2023-12-14T01:16:50;99174.09;;;5.56;100.00
69766;BME280;57039;48.014;21.384;2023-12-14T01:17:53;99164.56;;;5.57;100.00
69766;BME280;57039;48.014;21.384;2023-12-14T01:18:56;99173.38;;;5.54;100.00
69766;BME280;57039;48.014;21.384;2023-12-14T01:20:00;99166.06;;;5.45;100.00
69766;BME280;57039;48.014;21.384;2023-12-14T01:21:03;99166.47;;;5.53;100.00
69766;BME280;57039;48.014;21.384;2023-12-14T01:22:07;99171.66;;;5.53;100.00
69766;BME280;57039;48.014;21.384;2023-12-14T01:23:10;99177.97;;;5.49;100.00
69766;BME280;57039;48.014;21.384;2023-12-14T01:24:13;99177.91;;;5.51;100.00
69766;BME280;57039;48.014;21.384;2023-12-14T01:25:17;99178.16;;;5.46;100.00
69766;BME280;57039;48.014;21.384;2023-12-14T01:26:20;99185.00;;;5.47;100.00
69766;BME280;57039;48.014;21.384;2023-12-14T01:27:23;99178.06;;;5.47;100.00
69766;BME280;57039;48.014;21.384;2023-12-14T01:28:26;99178.75;;;5.51;100.00
69766;BME280;57039;48.014;21.384;2023-12-14T01:29:28;99166.62;;;5.50;100.00
69766;BME280;57039;48.014;21.384;2023-12-14T01:30:31;99178.81;;;5.49;100.00
69766;BME280;57039;48.014;21.384;2023-12-14T01:31:34;99162.72;;;5.43;100.00
69766;BME280;57039;48.014;21.384;2023-12-14T01:32:37;99167.91;;;5.43;100.00
69766;BME280;57039;48.014;21.384;2023-12-14T01:33:40;99168.56;;;5.46;100.00
69766;BME280;57039;48.014;21.384;2023-12-14T01:34:43;99175.38;;;5.49;100.00
69766;BME280;57039;48.014;21.384;2023-12-14T01:35:46;99173.44;;;5.53;100.00
69766;BME280;57039;48.014;21.384;2023-12-14T01:36:49;99167.50;;;5.51;100.00
69766;BME280;57039;48.014;21.384;2023-12-14T01:37:52;99153.66;;;5.34;100.00
69766;BME280;57039;48.014;21.384;2023-12-14T01:38:55;99177.47;;;5.58;100.00
69766;BME280;57039;48.014;21.384;2023-12-14T01:39:58;99181.00;;;5.57;100.00
69766;BME280;57039;48.014;21.384;2023-12-14T01:41:01;99181.47;;;5.64;100.00
69766;BME280;57039;48.014;21.384;2023-12-14T01:42:04;99167.63;;;5.63;100.00
69766;BME280;57039;48.014;21.384;2023-12-14T01:43:08;99162.03;;;5.55;100.00
69766;BME280;57039;48.014;21.384;2023-12-14T01:44:12;99183.44;;;5.60;100.00
69766;BME280;57039;48.014;21.384;2023-12-14T01:45:15;99192.91;;;5.61;100.00
69766;BME280;57039;48.014;21.384;2023-12-14T01:46:19;99199.88;;;5.45;100.00
69766;BME280;57039;48.014;21.384;2023-12-14T01:47:22;99197.28;;;5.45;100.00
69766;BME280;57039;48.014;21.384;2023-12-14T01:48:25;99196.47;;;5.44;100.00
69766;BME280;57039;48.014;21.384;2023-12-14T01:49:28;99198.13;;;5.45;100.00
69766;BME280;57039;48.014;21.384;2023-12-14T01:50:31;99192.75;;;5.48;100.00
69766;BME280;57039;48.014;21.384;2023-12-14T01:51:33;99194.50;;;5.48;100.00
69766;BME280;57039;48.014;21.384;2023-12-14T01:52:38;99192.66;;;5.50;100.00
69766;BME280;57039;48.014;21.384;2023-12-14T01:53:41;99192.56;;;5.52;100.00
69766;BME280;57039;48.014;21.384;2023-12-14T01:54:44;99201.66;;;5.44;100.00
69766;BME280;57039;48.014;21.384;2023-12-14T01:55:47;99194.09;;;5.40;100.00
69766;BME280;57039;48.014;21.384;2023-12-14T01:56:50;99202.13;;;5.35;100.00
69766;BME280;57039;48.014;21.384;2023-12-14T01:57:53;99205.31;;;5.40;100.00
69766;BME280;57039;48.014;21.384;2023-12-14T01:58:56;99198.53;;;5.38;100.00
69766;BME280;57039;48.014;21.384;2023-12-14T01:59:59;99207.16;;;5.22;100.00
69766;BME280;57039;48.014;21.384;2023-12-14T02:01:18;99207.78;;;5.28;100.00
69766;BME280;57039;48.014;21.384;2023-12-14T02:02:24;99210.38;;;5.28;100.00
69766;BME280;57039;48.014;21.384;2023-12-14T02:03:27;99211.81;;;5.33;100.00
69766;BME280;57039;48.014;21.384;2023-12-14T02:04:30;99209.19;;;5.33;100.00
69766;BME280;57039;48.014;21.384;2023-12-14T02:05:33;99209.37;;;5.30;100.00
69766;BME280;57039;48.014;21.384;2023-12-14T02:06:36;99214.19;;;5.20;100.00
69766;BME280;57039;48.014;21.384;2023-12-14T02:07:39;99213.12;;;5.24;100.00
69766;BME280;57039;48.014;21.384;2023-12-14T02:08:42;99210.38;;;5.28;100.00
69766;BME280;57039;48.014;21.384;2023-12-14T02:09:45;99214.31;;;5.35;100.00
69766;BME280;57039;48.014;21.384;2023-12-14T02:10:49;99202.66;;;5.42;100.00
69766;BME280;57039;48.014;21.384;2023-12-14T02:11:54;99187.56;;;5.33;100.00
69766;BME280;57039;48.014;21.384;2023-12-14T02:12:57;99206.75;;;5.46;100.00
69766;BME280;57039;48.014;21.384;2023-12-14T02:14:06;99201.66;;;5.44;100.00
69766;BME280;57039;48.014;21.384;2023-12-14T02:15:11;99201.66;;;5.44;100.00
69766;BME280;57039;48.014;21.384;2023-12-14T02:16:14;99198.97;;;5.46;100.00
69766;BME280;57039;48.014;21.384;2023-12-14T02:17:17;99172.38;;;5.25;100.00
69766;BME280;57039;48.014;21.384;2023-12-14T02:18:23;99201.28;;;5.35;100.00
69766;BME280;57039;48.014;21.384;2023-12-14T02:19:27;99198.47;;;5.39;100.00
69766;BME280;57039;48.014;21.384;2023-12-14T02:20:30;99191.91;;;5.32;100.00
69766;BME280;57039;48.014;21.384;2023-12-14T02:21:33;99183.75;;;5.38;100.00
69766;BME280;57039;48.014;21.384;2023-12-14T02:22:48;99186.19;;;5.41;100.00
69766;BME280;57039;48.014;21.384;2023-12-14T02:23:53;99178.31;;;5.43;100.00
69766;BME280;57039;48.014;21.384;2023-12-14T02:24:56;99178.25;;;5.44;100.00
69766;BME280;57039;48.014;21.384;2023-12-14T02:25:59;99176.56;;;5.43;100.00
69766;BME280;57039;48.014;21.384;2023-12-14T02:27:02;99172.19;;;5.44;100.00
69766;BME280;57039;48.014;21.384;2023-12-14T02:28:06;99181.00;;;5.41;100.00
69766;BME280;57039;48.014;21.384;2023-12-14T02:29:09;99151.81;;;5.20;100.00
69766;BME280;57039;48.014;21.384;2023-12-14T02:30:12;99184.78;;;5.36;100.00
69766;BME280;57039;48.014;21.384;2023-12-14T02:31:15;99185.69;;;5.35;100.00
69766;BME280;57039;48.014;21.384;2023-12-14T02:32:18;99169.44;;;5.31;100.00
69766;BME280;57039;48.014;21.384;2023-12-14T02:33:23;99180.66;;;5.32;100.00
69766;BME280;57039;48.014;21.384;2023-12-14T02:34:26;99192.06;;;5.29;100.00
69766;BME280;57039;48.014;21.384;2023-12-14T02:35:29;99197.19;;;5.31;100.00
69766;BME280;57039;48.014;21.384;2023-12-14T02:36:32;99201.72;;;5.27;100.00
69766;BME280;57039;48.014;21.384;2023-12-14T02:37:35;99193.41;;;5.20;100.00
69766;BME280;57039;48.014;21.384;2023-12-14T02:38:43;99199.03;;;5.29;100.00
69766;BME280;57039;48.014;21.384;2023-12-14T02:39:46;99202.81;;;5.23;100.00
69766;BME280;57039;48.014;21.384;2023-12-14T02:40:49;99209.94;;;5.19;100.00
69766;BME280;57039;48.014;21.384;2023-12-14T02:41:53;99211.19;;;5.12;100.00
69766;BME280;57039;48.014;21.384;2023-12-14T02:42:56;99216.56;;;5.09;100.00
69766;BME280;57039;48.014;21.384;2023-12-14T02:43:59;99211.53;;;5.06;100.00
69766;BME280;57039;48.014;21.384;2023-12-14T02:45:03;99214.81;;;5.10;100.00
69766;BME280;57039;48.014;21.384;2023-12-14T02:46:06;99202.63;;;5.10;100.00
69766;BME280;57039;48.014;21.384;2023-12-14T02:47:08;99183.09;;;5.03;100.00
69766;BME280;57039;48.014;21.384;2023-12-14T02:48:12;99211.47;;;5.23;100.00
69766;BME280;57039;48.014;21.384;2023-12-14T02:49:14;99184.19;;;5.15;100.00
69766;BME280;57039;48.014;21.384;2023-12-14T02:50:17;99210.53;;;5.24;100.00
69766;BME280;57039;48.014;21.384;2023-12-14T02:51:20;99215.41;;;5.31;100.00
69766;BME280;57039;48.014;21.384;2023-12-14T02:52:23;99206.00;;;5.28;100.00
69766;BME280;57039;48.014;21.384;2023-12-14T02:53:26;99198.88;;;5.32;100.00
69766;BME280;57039;48.014;21.384;2023-12-14T02:54:29;99191.72;;;5.35;100.00
69766;BME280;57039;48.014;21.384;2023-12-14T02:55:33;99183.94;;;5.35;100.00
69766;BME280;57039;48.014;21.384;2023-12-14T02:56:36;99189.22;;;5.34;100.00
69766;BME280;57039;48.014;21.384;2023-12-14T02:57:39;99186.69;;;5.32;100.00
69766;BME280;57039;48.014;21.384;2023-12-14T02:58:41;99195.19;;;5.36;100.00
69766;BME280;57039;48.014;21.384;2023-12-14T02:59:44;99198.63;;;5.36;100.00
69766;BME280;57039;48.014;21.384;2023-12-14T03:00:47;99207.94;;;5.40;100.00
69766;BME280;57039;48.014;21.384;2023-12-14T03:01:51;99194.84;;;5.42;100.00
69766;BME280;57039;48.014;21.384;2023-12-14T03:02:53;99198.13;;;5.45;100.00
69766;BME280;57039;48.014;21.384;2023-12-14T03:03:56;99175.22;;;5.36;100.00
69766;BME280;57039;48.014;21.384;2023-12-14T03:05:00;99199.53;;;5.51;100.00
69766;BME280;57039;48.014;21.384;2023-12-14T03:06:03;99211.81;;;5.33;100.00
69766;BME280;57039;48.014;21.384;2023-12-14T03:07:06;99224.13;;;5.30;100.00
69766;BME280;57039;48.014;21.384;2023-12-14T03:08:09;99226.78;;;5.12;100.00
69766;BME280;57039;48.014;21.384;2023-12-14T03:09:12;99256.63;;;5.05;100.00
69766;BME280;57039;48.014;21.384;2023-12-14T03:10:14;99243.22;;;4.97;100.00
69766;BME280;57039;48.014;21.384;2023-12-14T03:11:24;99265.03;;;5.10;100.00
69766;BME280;57039;48.014;21.384;2023-12-14T03:12:27;99266.38;;;5.17;100.00
69766;BME280;57039;48.014;21.384;2023-12-14T03:13:30;99265.53;;;5.17;100.00
69766;BME280;57039;48.014;21.384;2023-12-14T03:14:33;99264.63;;;5.18;100.00
69766;BME280;57039;48.014;21.384;2023-12-14T03:15:36;99269.06;;;5.16;100.00
69766;BME280;57039;48.014;21.384;2023-12-14T03:16:39;99261.44;;;5.13;100.00
69766;BME280;57039;48.014;21.384;2023-12-14T03:17:42;99266.38;;;5.17;100.00
69766;BME280;57039;48.014;21.384;2023-12-14T03:18:45;99263.69;;;5.19;100.00
69766;BME280;57039;48.014;21.384;2023-12-14T03:19:48;99250.09;;;5.14;100.00
69766;BME280;57039;48.014;21.384;2023-12-14T03:20:51;99257.41;;;5.23;100.00
69766;BME280;57039;48.014;21.384;2023-12-14T03:21:54;99250.88;;;5.32;100.00
69766;BME280;57039;48.014;21.384;2023-12-14T03:22:57;99235.69;;;5.24;100.00
69766;BME280;57039;48.014;21.384;2023-12-14T03:24:00;99243.06;;;5.32;100.00
69766;BME280;57039;48.014;21.384;2023-12-14T03:25:03;99213.03;;;5.26;100.00
69766;BME280;57039;48.014;21.384;2023-12-14T03:26:06;99235.69;;;5.40;100.00
69766;BME280;57039;48.014;21.384;2023-12-14T03:27:09;99238.31;;;5.40;100.00
69766;BME280;57039;48.014;21.384;2023-12-14T03:28:12;99247.78;;;5.41;100.00
69766;BME280;57039;48.014;21.384;2023-12-14T03:29:16;99248.47;;;5.44;100.00
69766;BME280;57039;48.014;21.384;2023-12-14T03:30:19;99248.53;;;5.43;100.00
69766;BME280;57039;48.014;21.384;2023-12-14T03:31:22;99247.53;;;5.45;100.00
69766;BME280;57039;48.014;21.384;2023-12-14T03:32:25;99251.38;;;5.38;100.00
69766;BME280;57039;48.014;21.384;2023-12-14T03:33:28;99252.25;;;5.39;100.00
69766;BME280;57039;48.014;21.384;2023-12-14T03:34:32;99251.12;;;5.43;100.00
69766;BME280;57039;48.014;21.384;2023-12-14T03:35:35;99244.09;;;5.45;100.00
69766;BME280;57039;48.014;21.384;2023-12-14T03:36:38;99248.88;;;5.53;100.00
69766;BME280;57039;48.014;21.384;2023-12-14T03:37:41;99248.88;;;5.53;100.00
69766;BME280;57039;48.014;21.384;2023-12-14T03:38:44;99228.41;;;5.31;100.00
69766;BME280;57039;48.014;21.384;2023-12-14T03:39:47;99243.75;;;5.35;100.00
69766;BME280;57039;48.014;21.384;2023-12-14T03:40:51;99253.31;;;5.35;100.00
69766;BME280;57039;48.014;21.384;2023-12-14T03:41:54;99249.97;;;5.33;100.00
69766;BME280;57039;48.014;21.384;2023-12-14T03:42:57;99232.16;;;5.09;100.00
69766;BME280;57039;48.014;21.384;2023-12-14T03:44:00;99262.44;;;5.26;100.00
69766;BME280;57039;48.014;21.384;2023-12-14T03:45:02;99270.84;;;5.31;100.00
69766;BME280;57039;48.014;21.384;2023-12-14T03:46:06;99267.63;;;5.26;100.00
69766;BME280;57039;48.014;21.384;2023-12-14T03:47:09;99276.31;;;5.26;100.00
69766;BME280;57039;48.014;21.384;2023-12-14T03:48:13;99268.72;;;5.06;100.00
69766;BME280;57039;48.014;21.384;2023-12-14T03:49:15;99297.41;;;5.20;100.00
69766;BME280;57039;48.014;21.384;2023-12-14T03:50:19;99294.13;;;5.17;100.00
69766;BME280;57039;48.014;21.384;2023-12-14T03:51:22;99302.03;;;5.15;100.00
69766;BME280;57039;48.014;21.384;2023-12-14T03:52:25;99291.69;;;5.14;100.00
69766;BME280;57039;48.014;21.384;2023-12-14T03:53:31;99291.56;;;5.33;100.00
69766;BME280;57039;48.014;21.384;2023-12-14T03:54:34;99286.38;;;5.33;100.00
69766;BME280;57039;48.014;21.384;2023-12-14T03:55:37;99288.53;;;5.24;100.00
69766;BME280;57039;48.014;21.384;2023-12-14T03:56:40;99284.50;;;5.35;100.00
69766;BME280;57039;48.014;21.384;2023-12-14T03:57:43;99275.38;;;5.28;100.00
69766;BME280;57039;48.014;21.384;2023-12-14T03:58:46;99276.16;;;5.45;100.00
69766;BME280;57039;48.014;21.384;2023-12-14T03:59:49;99283.69;;;5.50;100.00
69766;BME280;57039;48.014;21.384;2023-12-14T04:00:52;99276.16;;;5.45;100.00
69766;BME280;57039;48.014;21.384;2023-12-14T04:01:55;99276.81;;;5.49;100.00
69766;BME280;57039;48.014;21.384;2023-12-14T04:02:58;99280.50;;;5.45;100.00
69766;BME280;57039;48.014;21.384;2023-12-14T04:04:01;99279.50;;;5.47;100.00
69766;BME280;57039;48.014;21.384;2023-12-14T04:05:05;99274.22;;;5.49;100.00
69766;BME280;57039;48.014;21.384;2023-12-14T04:06:08;99277.81;;;5.46;100.00
69766;BME280;57039;48.014;21.384;2023-12-14T04:07:12;99277.16;;;5.43;100.00
69766;BME280;57039;48.014;21.384;2023-12-14T04:08:15;99281.41;;;5.44;100.00
69766;BME280;57039;48.014;21.384;2023-12-14T04:09:18;99292.59;;;5.46;100.00
69766;BME280;57039;48.014;21.384;2023-12-14T04:10:21;99293.75;;;5.40;100.00
69766;BME280;57039;48.014;21.384;2023-12-14T04:11:23;99295.03;;;5.49;100.00
69766;BME280;57039;48.014;21.384;2023-12-14T04:12:27;99285.94;;;5.56;100.00
69766;BME280;57039;48.014;21.384;2023-12-14T04:13:30;99283.19;;;5.59;100.00
69766;BME280;57039;48.014;21.384;2023-12-14T04:14:32;99285.88;;;5.58;100.00
69766;BME280;57039;48.014;21.384;2023-12-14T04:15:35;99282.19;;;5.62;100.00
69766;BME280;57039;48.014;21.384;2023-12-14T04:16:38;99288.22;;;5.62;100.00
69766;BME280;57039;48.014;21.384;2023-12-14T04:17:41;99291.75;;;5.61;100.00
69766;BME280;57039;48.014;21.384;2023-12-14T04:18:44;99288.22;;;5.62;100.00
69766;BME280;57039;48.014;21.384;2023-12-14T04:19:47;99294.47;;;5.60;100.00
69766;BME280;57039;48.014;21.384;2023-12-14T04:20:50;99287.56;;;5.59;100.00
69766;BME280;57039;48.014;21.384;2023-12-14T04:21:53;99296.03;;;5.62;100.00
69766;BME280;57039;48.014;21.384;2023-12-14T04:22:57;99293.34;;;5.64;100.00
69766;BME280;57039;48.014;21.384;2023-12-14T04:24:00;99289.91;;;5.63;100.00
69766;BME280;57039;48.014;21.384;2023-12-14T04:25:03;99303.09;;;5.60;100.00
69766;BME280;57039;48.014;21.384;2023-12-14T04:26:05;99302.00;;;5.64;100.00
69766;BME280;57039;48.014;21.384;2023-12-14T04:27:10;99304.75;;;5.61;100.00
69766;BME280;57039;48.014;21.384;2023-12-14T04:28:13;99313.50;;;5.60;100.00
69766;BME280;57039;48.014;21.384;2023-12-14T04:29:16;99324.91;;;5.58;100.00
69766;BME280;57039;48.014;21.384;2023-12-14T04:30:19;99293.59;;;5.43;100.00
69766;BME280;57039;48.014;21.384;2023-12-14T04:31:22;99322.03;;;5.62;100.00
69766;BME280;57039;48.014;21.384;2023-12-14T04:32:25;99314.94;;;5.66;100.00
69766;BME280;57039;48.014;21.384;2023-12-14T04:33:28;99313.34;;;5.63;100.00
69766;BME280;57039;48.014;21.384;2023-12-14T04:34:31;99312.72;;;5.58;100.00
69766;BME280;57039;48.014;21.384;2023-12-14T04:35:34;99311.62;;;5.62;100.00
69766;BME280;57039;48.014;21.384;2023-12-14T04:36:39;99301.75;;;5.69;100.00
69766;BME280;57039;48.014;21.384;2023-12-14T04:37:42;99305.19;;;5.69;100.00
69766;BME280;57039;48.014;21.384;2023-12-14T04:38:45;99276.97;;;5.46;100.00
69766;BME280;57039;48.014;21.384;2023-12-14T04:39:49;99315.34;;;5.58;100.00
69766;BME280;57039;48.014;21.384;2023-12-14T04:40:53;99330.87;;;5.60;100.00
69766;BME280;57039;48.014;21.384;2023-12-14T04:41:55;99342.12;;;5.60;100.00
69766;BME280;57039;48.014;21.384;2023-12-14T04:42:58;99339.41;;;5.62;100.00
69766;BME280;57039;48.014;21.384;2023-12-14T04:44:01;99338.41;;;5.64;100.00
69766;BME280;57039;48.014;21.384;2023-12-14T04:45:05;99326.34;;;5.63;100.00
69766;BME280;57039;48.014;21.384;2023-12-14T04:46:08;99321.75;;;5.68;100.00
69766;BME280;57039;48.014;21.384;2023-12-14T04:47:11;99324.25;;;5.70;100.00
69766;BME280;57039;48.014;21.384;2023-12-14T04:48:14;99329.78;;;5.64;100.00
69766;BME280;57039;48.014;21.384;2023-12-14T04:49:18;99316.00;;;5.62;100.00
69766;BME280;57039;48.014;21.384;2023-12-14T04:50:22;99332.06;;;5.70;100.00
69766;BME280;57039;48.014;21.384;2023-12-14T04:51:27;99329.84;;;5.62;100.00
69766;BME280;57039;48.014;21.384;2023-12-14T04:52:30;99333.06;;;5.67;100.00
69766;BME280;57039;48.014;21.384;2023-12-14T04:53:33;99334.59;;;5.71;100.00
69766;BME280;57039;48.014;21.384;2023-12-14T04:54:36;99332.97;;;5.69;100.00
69766;BME280;57039;48.014;21.384;2023-12-14T04:55:41;99329.72;;;5.65;100.00
69766;BME280;57039;48.014;21.384;2023-12-14T04:56:50;99334.47;;;5.73;100.00
69766;BME280;57039;48.014;21.384;2023-12-14T04:57:55;99334.97;;;5.80;100.00
69766;BME280;57039;48.014;21.384;2023-12-14T04:59:07;99340.13;;;5.81;100.00
69766;BME280;57039;48.014;21.384;2023-12-14T05:00:11;99332.38;;;5.80;100.00
69766;BME280;57039;48.014;21.384;2023-12-14T05:01:14;99343.78;;;5.77;100.00
69766;BME280;57039;48.014;21.384;2023-12-14T05:02:17;99345.56;;;5.77;100.00
69766;BME280;57039;48.014;21.384;2023-12-14T05:03:19;99351.03;;;5.72;100.00
69766;BME280;57039;48.014;21.384;2023-12-14T05:04:22;99347.75;;;5.68;100.00
69766;BME280;57039;48.014;21.384;2023-12-14T05:05:26;99347.00;;;5.66;100.00
69766;BME280;57039;48.014;21.384;2023-12-14T05:06:54;99355.41;;;5.71;100.00
69766;BME280;57039;48.014;21.384;2023-12-14T05:07:57;99345.63;;;5.59;100.00
69766;BME280;57039;48.014;21.384;2023-12-14T05:09:03;99347.06;;;5.65;100.00
69766;BME280;57039;48.014;21.384;2023-12-14T05:10:08;99339.97;;;5.68;100.00
69766;BME280;57039;48.014;21.384;2023-12-14T05:11:13;99345.06;;;5.70;100.00
69766;BME280;57039;48.014;21.384;2023-12-14T05:12:16;99351.09;;;5.70;100.00
69766;BME280;57039;48.014;21.384;2023-12-14T05:13:20;99339.97;;;5.68;100.00
69766;BME280;57039;48.014;21.384;2023-12-14T05:14:23;99355.97;;;5.77;100.00
69766;BME280;57039;48.014;21.384;2023-12-14T05:15:28;99352.53;;;5.76;100.00
69766;BME280;57039;48.014;21.384;2023-12-14T05:16:32;99353.37;;;5.77;100.00
69766;BME280;57039;48.014;21.384;2023-12-14T05:17:37;99360.44;;;5.75;100.00
69766;BME280;57039;48.014;21.384;2023-12-14T05:18:40;99364.78;;;5.74;100.00
69766;BME280;57039;48.014;21.384;2023-12-14T05:19:43;99374.28;;;5.75;100.00
69766;BME280;57039;48.014;21.384;2023-12-14T05:20:46;99372.53;;;5.76;100.00
69766;BME280;57039;48.014;21.384;2023-12-14T05:21:49;99378.97;;;5.68;100.00
69766;BME280;57039;48.014;21.384;2023-12-14T05:22:52;99389.69;;;5.62;100.00
69766;BME280;57039;48.014;21.384;2023-12-14T05:23:55;99380.22;;;5.61;100.00
69766;BME280;57039;48.014;21.384;2023-12-14T05:24:57;99376.53;;;5.65;100.00
69766;BME280;57039;48.014;21.384;2023-12-14T05:26:00;99380.88;;;5.65;100.00
69766;BME280;57039;48.014;21.384;2023-12-14T05:27:04;99377.53;;;5.63;100.00
69766;BME280;57039;48.014;21.384;2023-12-14T05:28:08;99373.41;;;5.59;100.00
69766;BME280;57039;48.014;21.384;2023-12-14T05:29:11;99376.16;;;5.56;100.00
69766;BME280;57039;48.014;21.384;2023-12-14T05:30:14;99378.09;;;5.52;100.00
69766;BME280;57039;48.014;21.384;2023-12-14T05:31:17;99381.47;;;5.54;100.00